createdAt,value
2019-02-15T00:00:42.006Z,73.33
2019-02-15T00:03:19.026Z,74.63
2019-02-15T00:05:51.811Z,82.27
2019-02-15T00:08:24.542Z,75.20
2019-02-15T00:10:57.350Z,80.57
2019-02-15T00:13:30.826Z,82.57
2019-02-15T00:16:02.527Z,78.60
2019-02-15T00:18:42.838Z,74.30
2019-02-15T00:21:17.109Z,72.57
2019-02-15T00:23:53.309Z,72.30
2019-02-15T00:26:25.306Z,75.10
2019-02-15T00:28:58.223Z,73.50
2019-02-15T00:31:30.229Z,69.13
2019-02-15T00:34:01.586Z,74.03
2019-02-15T00:36:34.585Z,72.73
2019-02-15T00:39:07.785Z,65.40
2019-02-15T00:41:40.229Z,67.47
2019-02-15T00:44:13.485Z,66.97
2019-02-15T00:46:58.250Z,61.40
2019-02-15T00:49:39.407Z,81.70
2019-02-15T00:52:16.328Z,66.17
2019-02-15T00:55:05.117Z,65.53
2019-02-15T00:58:02.769Z,58.67
2019-02-15T01:00:53.197Z,61.70
2019-02-15T01:07:14.997Z,62.63
2019-02-15T01:10:19.723Z,60.03
2019-02-15T01:13:10.407Z,71.83
2019-02-15T01:15:41.789Z,57.63
2019-02-15T01:18:20.321Z,65.80
2019-02-15T01:20:52.392Z,69.10
2019-02-15T01:23:23.587Z,67.53
2019-02-15T01:26:22.952Z,67.33
2019-02-15T01:29:22.195Z,61.60
2019-02-15T01:32:11.812Z,61.43
2019-02-15T01:34:58.785Z,62.77
2019-02-15T01:38:01.810Z,58.57
2019-02-15T01:40:58.786Z,61.83
2019-02-15T01:43:49.423Z,65.13
2019-02-15T01:46:30.476Z,56.97
2019-02-15T01:49:01.673Z,61.30
2019-02-15T01:51:33.290Z,55.57
2019-02-15T01:54:04.739Z,64.40
2019-02-15T01:56:43.424Z,63.23
2019-02-15T01:59:14.616Z,59.33
2019-02-15T02:01:47.251Z,56.13
2019-02-15T02:04:18.592Z,54.33
2019-02-15T02:06:50.088Z,53.20
2019-02-15T02:11:54.228Z,54.77
2019-02-15T02:14:29.261Z,55.17
2019-02-15T02:17:02.482Z,49.97
2019-02-15T02:19:41.601Z,49.90
2019-02-15T02:30:05.187Z,51.03
2019-02-15T02:32:39.445Z,53.40
2019-02-15T02:35:22.413Z,54.80
2019-02-15T02:41:08.974Z,44.67
2019-02-15T02:43:59.223Z,58.60
2019-02-15T02:46:31.679Z,47.07
2019-02-15T02:49:11.521Z,48.13
2019-02-15T02:51:44.927Z,48.60
2019-02-15T02:54:23.878Z,47.30
2019-02-15T02:56:55.603Z,54.40
2019-02-15T02:59:28.942Z,50.83
2019-02-15T03:02:00.741Z,47.30
2019-02-15T03:04:32.257Z,47.10
2019-02-15T03:07:12.060Z,52.50
2019-02-15T03:09:59.021Z,51.40
2019-02-15T03:12:30.753Z,50.87
2019-02-15T03:15:02.103Z,58.23
2019-02-15T03:17:33.093Z,50.03
2019-02-15T03:20:04.403Z,54.10
2019-02-15T03:22:39.558Z,49.53
2019-02-15T03:25:11.215Z,53.07
2019-02-15T03:27:42.998Z,47.90
2019-02-15T03:30:14.038Z,47.23
2019-02-15T03:32:45.698Z,51.70
2019-02-15T03:35:17.037Z,52.83
2019-02-15T03:38:06.755Z,56.53
2019-02-15T03:40:42.959Z,46.33
2019-02-15T03:43:14.504Z,52.87
2019-02-15T03:45:46.709Z,55.00
2019-02-15T03:48:19.432Z,58.20
2019-02-15T03:50:51.658Z,55.33
2019-02-15T03:53:23.237Z,52.60
2019-02-15T03:55:54.615Z,57.00
2019-02-15T03:58:26.530Z,53.43
2019-02-15T04:00:57.832Z,51.90
2019-02-15T04:03:28.446Z,58.70
2019-02-15T04:05:59.110Z,54.60
2019-02-15T04:08:32.154Z,58.60
2019-02-15T04:11:03.608Z,50.53
2019-02-15T04:13:35.535Z,55.23
2019-02-15T04:16:06.888Z,48.00
2019-02-15T04:18:37.665Z,50.43
2019-02-15T04:21:09.065Z,52.13
2019-02-15T04:23:42.634Z,52.77
2019-02-15T04:26:14.153Z,51.13
2019-02-15T04:28:45.474Z,51.37
2019-02-15T04:31:16.967Z,55.47
2019-02-15T04:33:48.327Z,55.57
2019-02-15T04:36:19.581Z,53.27
2019-02-15T04:38:51.157Z,49.13
2019-02-15T04:41:22.623Z,51.13
2019-02-15T04:43:59.289Z,55.47
2019-02-15T04:46:50.125Z,48.23
2019-02-15T04:52:17.906Z,57.30
2019-02-15T04:54:46.371Z,52.50
2019-02-15T04:57:17.425Z,51.00
2019-02-15T04:59:48.205Z,58.87
2019-02-15T05:02:24.251Z,56.63
2019-02-15T05:05:06.978Z,53.27
2019-02-15T05:07:54.955Z,67.97
2019-02-15T05:10:48.780Z,64.37
2019-02-15T05:13:08.527Z,66.83
2019-02-15T05:15:50.593Z,73.73
2019-02-15T05:18:21.105Z,69.90
2019-02-15T05:20:52.608Z,74.57
2019-02-15T05:23:27.168Z,88.57
2019-02-15T05:25:59.786Z,82.23
2019-02-15T05:28:32.001Z,86.60
2019-02-15T05:31:03.430Z,87.33
2019-02-15T05:33:35.676Z,82.80
2019-02-15T05:36:06.481Z,81.10
2019-02-15T05:38:38.257Z,96.87
2019-02-15T05:41:08.954Z,103.03
2019-02-15T05:43:39.802Z,99.63
2019-02-15T05:46:10.333Z,102.00
2019-02-15T05:48:42.185Z,105.80
2019-02-15T05:51:12.873Z,106.43
2019-02-15T05:53:44.643Z,115.97
2019-02-15T05:56:16.024Z,104.87
2019-02-15T05:58:47.519Z,111.73
2019-02-15T06:01:19.371Z,111.30
2019-02-15T06:03:50.470Z,105.00
2019-02-15T06:06:21.034Z,106.67
2019-02-15T06:08:52.194Z,106.57
2019-02-15T06:11:23.039Z,106.07
2019-02-15T06:13:54.239Z,108.07
2019-02-15T06:16:25.603Z,116.83
2019-02-15T06:18:56.769Z,112.43
2019-02-15T06:21:29.561Z,111.40
2019-02-15T06:24:02.456Z,120.73
2019-02-15T06:26:33.803Z,110.53
2019-02-15T06:29:05.186Z,113.93
2019-02-15T06:51:37.206Z,124.27
2019-02-15T06:54:07.898Z,136.30
2019-02-15T07:01:58.987Z,131.53
2019-02-15T07:04:34.948Z,135.03
2019-02-15T07:07:06.424Z,140.00
2019-02-15T07:09:38.455Z,128.60
2019-02-15T07:12:09.730Z,147.47
2019-02-15T07:14:41.872Z,136.57
2019-02-15T07:17:12.668Z,137.30
2019-02-15T07:19:43.944Z,145.60
2019-02-15T07:22:15.564Z,129.73
2019-02-15T07:24:47.338Z,137.93
2019-02-15T07:27:18.805Z,127.80
2019-02-15T07:29:50.425Z,165.47
2019-02-15T07:32:22.110Z,138.03
2019-02-15T07:34:53.526Z,137.33
2019-02-15T07:37:24.818Z,134.27
2019-02-15T07:39:56.063Z,146.30
2019-02-15T07:42:27.469Z,131.97
2019-02-15T07:44:58.659Z,149.07
2019-02-15T07:47:30.037Z,153.27
2019-02-15T07:50:01.363Z,138.30
2019-02-15T07:52:33.184Z,135.27
2019-02-15T07:55:04.489Z,139.13
2019-02-15T07:57:36.478Z,138.67
2019-02-15T08:00:09.093Z,140.07
2019-02-15T08:02:41.901Z,141.10
2019-02-15T08:05:13.266Z,134.53
2019-02-15T08:07:44.533Z,148.30
2019-02-15T08:10:15.383Z,142.40
2019-02-15T08:12:47.230Z,149.73
2019-02-15T08:15:18.545Z,139.70
2019-02-15T08:17:50.030Z,163.40
2019-02-15T08:20:20.984Z,149.50
2019-02-15T08:22:52.173Z,152.57
2019-02-15T08:25:23.778Z,181.40
2019-02-15T08:27:56.038Z,174.07
2019-02-15T08:30:27.463Z,159.23
2019-02-15T08:32:58.814Z,168.70
2019-02-15T08:35:29.761Z,169.63
2019-02-15T08:38:00.926Z,170.20
2019-02-15T08:40:32.260Z,153.47
2019-02-15T08:43:03.131Z,146.13
2019-02-15T08:45:34.366Z,141.77
2019-02-15T08:48:05.738Z,138.70
2019-02-15T08:50:37.074Z,141.30
2019-02-15T08:53:08.576Z,154.87
2019-02-15T08:55:41.126Z,142.80
2019-02-15T08:58:11.829Z,158.57
2019-02-15T09:00:43.758Z,149.93
2019-02-15T09:03:14.173Z,151.23
2019-02-15T09:05:45.764Z,133.63
2019-02-15T09:08:16.458Z,144.30
2019-02-15T09:10:47.506Z,161.97
2019-02-15T09:13:19.107Z,132.17
2019-02-15T09:15:50.478Z,160.37
2019-02-15T09:18:21.611Z,143.97
2019-02-15T09:20:52.858Z,153.33
2019-02-15T09:23:23.589Z,155.87
2019-02-15T09:25:54.194Z,182.10
2019-02-15T09:28:39.117Z,143.03
2019-02-15T09:31:10.736Z,164.30
2019-02-15T09:33:43.577Z,160.70
2019-02-15T09:36:14.862Z,175.67
2019-02-15T09:38:46.530Z,153.63
2019-02-15T09:41:17.787Z,154.03
2019-02-15T09:43:48.510Z,149.87
2019-02-15T09:46:20.224Z,143.47
2019-02-15T09:48:51.625Z,161.20
2019-02-15T09:51:22.808Z,150.60
2019-02-15T09:53:54.022Z,159.60
2019-02-15T09:56:25.078Z,164.20
2019-02-15T09:58:56.446Z,163.20
2019-02-15T10:01:27.881Z,154.47
2019-02-15T10:03:58.495Z,175.13
2019-02-15T10:06:30.046Z,158.83
2019-02-15T10:09:01.567Z,150.77
2019-02-15T10:11:33.958Z,172.37
2019-02-15T10:14:05.277Z,158.13
2019-02-15T10:16:36.867Z,175.00
2019-02-15T10:19:07.677Z,172.80
2019-02-15T10:21:38.774Z,159.63
2019-02-15T10:24:10.169Z,152.73
2019-02-15T10:26:42.185Z,134.53
2019-02-15T10:29:13.529Z,139.10
2019-02-15T10:31:44.931Z,134.53
2019-02-15T10:34:16.773Z,135.40
2019-02-15T10:36:48.089Z,139.40
2019-02-15T10:39:20.140Z,127.00
2019-02-15T10:41:52.052Z,135.37
2019-02-15T10:44:23.372Z,129.37
2019-02-15T10:46:54.657Z,120.10
2019-02-15T10:49:25.950Z,130.87
2019-02-15T10:51:57.298Z,133.67
2019-02-15T10:54:32.710Z,131.17
2019-02-15T10:57:03.901Z,122.93
2019-02-15T10:59:35.266Z,136.00
2019-02-15T11:02:09.301Z,116.80
2019-02-15T11:04:41.298Z,113.80
2019-02-15T11:07:12.751Z,101.53
2019-02-15T11:09:43.966Z,116.67
2019-02-15T11:12:15.468Z,114.83
2019-02-15T11:14:46.811Z,120.60
2019-02-15T11:17:18.226Z,125.80
2019-02-15T11:19:49.862Z,126.20
2019-02-15T11:22:21.220Z,118.00
2019-02-15T11:24:52.506Z,108.83
2019-02-15T11:27:23.826Z,116.53
2019-02-15T11:29:55.347Z,118.60
2019-02-15T11:32:26.620Z,116.80
2019-02-15T11:34:57.895Z,114.43
2019-02-15T11:37:29.222Z,122.87
2019-02-15T11:40:01.859Z,131.93
2019-02-15T11:42:33.029Z,134.77
2019-02-15T11:45:04.332Z,125.50
2019-02-15T11:47:36.233Z,127.17
2019-02-15T11:50:08.513Z,132.33
2019-02-15T11:52:41.334Z,113.47
2019-02-15T11:55:12.985Z,114.40
2019-02-15T11:57:44.501Z,124.10
2019-02-15T12:00:20.381Z,111.27
2019-02-15T12:02:52.843Z,104.40
2019-02-15T12:05:24.173Z,105.73
2019-02-15T12:07:57.429Z,111.47
2019-02-15T12:10:28.773Z,113.63
2019-02-15T12:13:00.065Z,113.93
2019-02-15T12:15:32.284Z,101.23
2019-02-15T12:18:03.734Z,98.40
2019-02-15T12:20:35.081Z,94.80
2019-02-15T12:23:05.676Z,103.27
2019-02-15T12:25:37.844Z,111.30
2019-02-15T12:28:08.975Z,102.93
2019-02-15T12:30:40.830Z,99.87
2019-02-15T12:33:12.038Z,96.80
2019-02-15T12:35:43.425Z,93.20
2019-02-15T12:38:14.941Z,95.23
2019-02-15T12:40:45.770Z,93.13
2019-02-15T12:43:17.693Z,91.10
2019-02-15T12:45:48.944Z,96.87
2019-02-15T12:48:20.720Z,94.60
2019-02-15T12:50:52.012Z,102.10
2019-02-15T12:53:23.380Z,93.80
2019-02-15T12:55:55.163Z,91.73
2019-02-15T12:58:26.494Z,88.37
2019-02-15T13:00:57.787Z,83.13
2019-02-15T13:03:29.029Z,91.40
2019-02-15T13:06:01.263Z,90.60
2019-02-15T13:08:33.048Z,90.57
2019-02-15T13:11:04.464Z,89.03
2019-02-15T13:13:35.871Z,91.70
2019-02-15T13:16:07.327Z,98.03
2019-02-15T13:18:41.065Z,87.10
2019-02-15T13:21:11.945Z,81.87
2019-02-15T13:23:43.124Z,94.53
2019-02-15T13:26:14.433Z,92.80
2019-02-15T13:28:45.836Z,83.93
2019-02-15T13:31:17.114Z,89.23
2019-02-15T13:33:48.451Z,91.63
2019-02-15T13:36:19.989Z,87.57
2019-02-15T13:38:51.867Z,84.70
2019-02-15T13:41:24.608Z,85.30
2019-02-15T13:43:55.441Z,89.97
2019-02-15T13:46:26.802Z,84.93
2019-02-15T13:48:59.179Z,85.70
2019-02-15T13:51:30.981Z,89.33
2019-02-15T13:54:04.240Z,83.13
2019-02-15T13:56:40.447Z,81.87
2019-02-15T13:59:10.993Z,77.63
2019-02-15T14:01:41.469Z,86.17
2019-02-15T14:04:12.535Z,83.33
2019-02-15T14:06:45.593Z,83.90
2019-02-15T14:09:17.044Z,84.43
2019-02-15T14:11:48.251Z,82.93
2019-02-15T14:14:20.729Z,86.70
2019-02-15T14:16:53.726Z,82.93
2019-02-15T14:19:24.952Z,85.90
2019-02-15T14:21:56.564Z,76.80
2019-02-15T14:24:28.454Z,86.83
2019-02-15T14:27:00.398Z,84.23
2019-02-15T14:29:32.521Z,83.97
2019-02-15T14:32:05.289Z,83.97
2019-02-15T14:34:38.791Z,83.27
2019-02-15T14:37:09.660Z,84.50
2019-02-15T14:39:42.249Z,75.17
2019-02-15T14:42:13.939Z,75.07
2019-02-15T14:44:45.933Z,80.73
2019-02-15T14:47:17.402Z,84.43
2019-02-15T14:49:48.592Z,83.17
2019-02-15T14:52:19.885Z,88.83
2019-02-15T14:54:56.078Z,88.70
2019-02-15T14:57:29.833Z,84.17
2019-02-15T15:00:01.087Z,86.33
2019-02-15T15:02:33.769Z,80.60
2019-02-15T15:05:05.540Z,82.97
2019-02-15T15:07:36.947Z,86.33
2019-02-15T15:10:08.636Z,84.70
2019-02-15T15:12:40.760Z,82.90
2019-02-15T15:15:12.362Z,80.17
2019-02-15T15:17:45.739Z,92.43
2019-02-15T15:20:16.915Z,91.67
2019-02-15T15:22:48.149Z,91.13
2019-02-15T15:25:19.137Z,91.27
2019-02-15T15:27:50.623Z,82.50
2019-02-15T15:30:21.373Z,93.30
2019-02-15T15:32:52.988Z,84.77
2019-02-15T15:35:24.657Z,83.87
2019-02-15T15:37:56.302Z,87.87
2019-02-15T15:40:27.901Z,93.53
2019-02-15T15:42:58.835Z,89.70
2019-02-15T15:45:33.894Z,86.43
2019-02-15T15:48:22.666Z,86.80
2019-02-15T15:50:53.185Z,77.80
2019-02-15T15:59:55.953Z,74.77
2019-02-15T16:02:27.312Z,73.50
2019-02-15T16:05:00.347Z,76.60
2019-02-15T16:07:31.737Z,69.30
2019-02-15T16:10:03.050Z,73.37
2019-02-15T16:12:34.358Z,70.47
2019-02-15T16:15:05.772Z,79.63
2019-02-15T16:17:38.096Z,67.30
2019-02-15T16:20:09.240Z,64.60
2019-02-15T16:22:41.319Z,68.60
2019-02-15T16:25:12.601Z,63.87
2019-02-15T16:27:44.849Z,65.20
2019-02-15T16:30:20.295Z,69.87
2019-02-15T16:32:56.537Z,69.97
2019-02-15T16:35:43.494Z,64.37
2019-02-15T16:38:15.386Z,72.23
2019-02-15T16:40:57.579Z,64.50
2019-02-15T16:43:31.094Z,72.57
2019-02-15T16:46:10.632Z,77.43
2019-02-15T16:48:42.468Z,76.87
2019-02-15T16:51:13.750Z,70.90
2019-02-15T16:53:44.434Z,68.20
2019-02-15T16:56:15.909Z,81.37
2019-02-15T16:58:48.337Z,74.53
2019-02-15T17:01:20.038Z,77.33
2019-02-15T17:03:51.894Z,83.33
2019-02-15T17:06:23.479Z,86.90
2019-02-15T17:08:55.177Z,83.83
2019-02-15T17:11:27.450Z,81.47
2019-02-15T17:13:58.685Z,86.77
2019-02-15T17:16:30.399Z,89.20
2019-02-15T17:19:01.682Z,90.73
2019-02-15T17:21:33.791Z,91.23
2019-02-15T17:24:05.010Z,102.97
2019-02-15T17:26:36.378Z,103.57
2019-02-15T17:29:07.671Z,101.70
2019-02-15T17:31:38.369Z,95.90
2019-02-15T17:34:09.596Z,91.07
2019-02-15T17:36:42.423Z,83.97
2019-02-15T17:39:14.024Z,85.00
2019-02-15T17:41:45.748Z,77.50
2019-02-15T17:44:17.410Z,76.47
2019-02-15T17:46:48.758Z,75.30
2019-02-15T17:49:21.069Z,72.50
2019-02-15T17:51:52.349Z,67.97
2019-02-15T17:54:23.727Z,74.50
2019-02-15T17:56:55.209Z,72.87
2019-02-15T17:59:26.545Z,72.47
2019-02-15T18:01:58.278Z,72.20
2019-02-15T18:04:30.161Z,81.07
2019-02-15T18:07:02.158Z,69.33
2019-02-15T18:09:34.047Z,76.17
2019-02-15T18:12:05.518Z,84.83
2019-02-15T18:14:38.444Z,80.50
2019-02-15T18:17:10.579Z,83.20
2019-02-15T18:19:47.308Z,82.43
2019-02-15T18:22:15.289Z,78.23
2019-02-15T18:24:46.813Z,73.87
2019-02-15T18:27:18.250Z,84.83
2019-02-15T18:29:49.708Z,81.40
2019-02-15T18:32:21.162Z,78.50
2019-02-15T18:34:53.352Z,75.53
2019-02-15T18:37:26.039Z,79.53
2019-02-15T18:39:57.753Z,73.80
2019-02-15T18:42:29.907Z,79.10
2019-02-15T18:45:01.813Z,74.87
2019-02-15T18:47:33.706Z,67.17
2019-02-15T18:50:05.287Z,65.93
2019-02-15T18:52:38.181Z,67.23
2019-02-15T18:55:09.825Z,61.67
2019-02-15T18:57:41.696Z,64.27
2019-02-15T19:00:14.987Z,62.40
2019-02-15T19:02:48.274Z,60.40
2019-02-15T19:05:19.767Z,64.57
2019-02-15T19:07:51.648Z,57.43
2019-02-15T19:10:25.769Z,65.57
2019-02-15T19:13:02.509Z,59.83
2019-02-15T19:15:34.598Z,52.63
2019-02-15T19:18:06.079Z,57.17
2019-02-15T19:20:37.465Z,55.77
2019-02-15T19:23:10.363Z,54.27
2019-02-15T19:25:52.228Z,53.57
2019-02-15T19:28:23.896Z,53.13
2019-02-15T19:30:55.329Z,59.63
2019-02-15T19:33:26.823Z,55.23
2019-02-15T19:36:01.218Z,59.10
2019-02-15T19:38:35.547Z,56.33
2019-02-15T19:41:08.446Z,58.00
2019-02-15T19:43:40.525Z,58.80
2019-02-15T19:46:11.830Z,58.17
2019-02-15T19:48:43.349Z,57.67
2019-02-15T19:51:15.246Z,58.13
2019-02-15T19:53:46.595Z,54.63
2019-02-15T19:56:18.098Z,57.63
2019-02-15T19:58:49.985Z,60.37
2019-02-15T20:01:21.474Z,55.50
2019-02-15T20:03:53.111Z,57.23
2019-02-15T20:06:24.430Z,57.73
2019-02-15T20:09:06.630Z,59.97
2019-02-15T20:11:38.665Z,62.73
2019-02-15T20:14:10.049Z,56.83
2019-02-15T20:16:42.024Z,62.63
2019-02-15T20:19:13.524Z,66.20
2019-02-15T20:21:50.052Z,62.73
2019-02-15T20:24:21.293Z,98.73
2019-02-15T20:26:52.845Z,83.83
2019-02-15T20:29:24.158Z,89.97
2019-02-15T20:31:55.647Z,86.97
2019-02-15T20:34:34.668Z,84.37
2019-02-15T20:37:07.874Z,87.33
2019-02-15T20:39:50.656Z,84.93
2019-02-15T20:42:30.528Z,86.33
2019-02-15T20:45:33.092Z,104.83
2019-02-15T20:48:00.626Z,104.60
2019-02-15T20:50:38.638Z,103.67
2019-02-15T20:53:10.176Z,97.73
2019-02-15T20:55:41.522Z,99.17
2019-02-15T20:58:12.838Z,91.00
2019-02-15T21:00:45.187Z,86.00
2019-02-15T21:03:16.754Z,89.10
2019-02-15T21:15:35.801Z,71.57
2019-02-15T21:18:07.308Z,73.07
2019-02-15T21:20:41.602Z,68.33
2019-02-15T21:23:13.684Z,63.50
2019-02-15T21:25:46.253Z,64.40
2019-02-15T21:28:17.629Z,68.87
2019-02-15T21:30:58.177Z,68.77
2019-02-15T21:33:34.151Z,65.93
2019-02-15T21:36:07.470Z,67.87
2019-02-15T21:38:42.493Z,68.93
2019-02-15T21:41:26.233Z,70.10
2019-02-15T21:43:59.256Z,64.90
2019-02-15T21:46:44.497Z,66.77
2019-02-15T21:49:18.690Z,68.43
2019-02-15T21:51:51.514Z,69.73
2019-02-15T21:54:24.396Z,70.37
2019-02-15T21:56:56.539Z,66.90
2019-02-15T21:59:31.210Z,67.57
2019-02-15T22:02:04.897Z,69.53
2019-02-15T22:04:40.529Z,67.03
2019-02-15T22:07:13.990Z,73.13
2019-02-15T22:09:47.532Z,74.10
2019-02-15T22:12:25.140Z,70.00
2019-02-15T22:14:58.095Z,73.67
2019-02-15T22:17:47.543Z,74.50
2019-02-15T22:20:27.047Z,74.10
2019-02-15T22:22:59.874Z,65.40
2019-02-15T22:25:38.669Z,68.37
2019-02-15T22:28:16.496Z,73.03
2019-02-15T22:30:48.543Z,75.80
2019-02-15T22:33:20.996Z,73.33
2019-02-15T22:35:52.420Z,68.53
2019-02-15T22:38:25.009Z,68.80
2019-02-15T22:41:12.829Z,71.27
2019-02-15T22:43:44.882Z,77.17
2019-02-15T22:46:16.250Z,77.70
2019-02-15T22:48:51.090Z,73.13
2019-02-15T22:51:31.481Z,68.87
2019-02-15T22:54:04.320Z,86.97
2019-02-15T22:56:39.054Z,78.47
2019-02-15T22:59:13.129Z,75.23
2019-02-15T23:01:44.605Z,79.03
2019-02-15T23:04:17.928Z,75.07
2019-02-15T23:06:50.343Z,73.70
2019-02-15T23:09:27.929Z,74.27
2019-02-15T23:12:00.440Z,75.60
2019-02-15T23:14:32.469Z,78.47
2019-02-15T23:17:05.597Z,71.97
2019-02-15T23:19:39.435Z,79.83
2019-02-15T23:22:13.189Z,84.37
2019-02-15T23:24:46.688Z,77.10
2019-02-15T23:27:19.251Z,79.90
2019-02-15T23:30:07.436Z,73.93
2019-02-15T23:32:40.189Z,78.30
2019-02-15T23:35:15.841Z,81.33
2019-02-15T23:37:56.537Z,78.20
2019-02-15T23:40:35.559Z,72.10
2019-02-15T23:43:09.933Z,80.37
2019-02-15T23:45:45.010Z,66.97
2019-02-15T23:48:17.461Z,76.67
2019-02-15T23:50:54.969Z,78.40
2019-02-15T23:53:34.341Z,78.80
2019-02-15T23:56:10.033Z,74.03
2019-02-15T23:58:42.524Z,80.87
